Time;durP1;ratioP1;P1;durP2;ratioP2;P2;SDS_P1;SDS_P2;PMS_P1;PMS_P2;Temp;Humidity;BMP_temperature;BMP_pressure;BME280_temperature;BME280_humidity;BME280_pressure;Samples;Min_cycle;Max_cycle;Signal;HPM_P1;HPM_P2
2023/02/08 00:00:15;;;;;;;24.90;12.00;;;;;;;-4.75;54.69;103169.09;100446;1257;10002735;-71
2023/02/08 00:02:42;;;;;;;24.60;11.50;;;;;;;-4.77;54.83;103170.43;100375;1257;10001723;-71
2023/02/08 00:05:09;;;;;;;21.60;11.00;;;;;;;-5.09;55.46;103175.96;107927;1254;60824;-71
2023/02/08 00:07:36;;;;;;;22.90;11.40;;;;;;;-4.88;55.11;103175.81;107949;1257;72878;-71
2023/02/08 00:10:05;;;;;;;25.50;12.90;;;;;;;-4.85;55.16;103182.75;107859;1254;73023;-72
2023/02/08 00:12:35;;;;;;;23.80;12.10;;;;;;;-4.87;55.05;103182.67;107923;1257;61010;-73
2023/02/08 00:15:03;;;;;;;22.10;11.40;;;;;;;-4.85;55.05;103179.64;107888;1259;60344;-71
2023/02/08 00:17:30;;;;;;;25.10;12.50;;;;;;;-4.83;55.00;103179.32;109226;1255;75136;-72
2023/02/08 00:19:57;;;;;;;23.80;11.50;;;;;;;-4.79;55.10;103183.98;109057;1254;72569;-72
2023/02/08 00:22:24;;;;;;;24.50;12.00;;;;;;;-4.78;55.05;103180.43;109214;1256;71298;-72
2023/02/08 00:24:51;;;;;;;23.00;11.40;;;;;;;-4.76;54.97;103179.95;107946;1257;61965;-72
2023/02/08 00:27:18;;;;;;;23.60;11.90;;;;;;;-4.75;55.06;103177.44;107876;1255;60343;-71
2023/02/08 00:29:45;;;;;;;21.90;11.50;;;;;;;-4.76;54.94;103174.54;107851;1259;73049;-72
2023/02/08 00:32:12;;;;;;;27.20;12.50;;;;;;;-4.83;55.04;103179.11;107881;1255;72751;-71
2023/02/08 00:34:41;;;;;;;23.80;12.00;;;;;;;-4.86;54.99;103177.42;107761;1256;73898;-71
2023/02/08 00:37:09;;;;;;;24.20;12.20;;;;;;;-4.90;55.15;103186.85;108006;1256;62099;-71
2023/02/08 00:39:37;;;;;;;23.90;12.20;;;;;;;-4.92;55.11;103193.27;107932;1256;60443;-71
2023/02/08 00:42:04;;;;;;;28.30;12.50;;;;;;;-4.96;55.07;103196.60;107984;1256;73327;-71
2023/02/08 00:44:32;;;;;;;26.50;13.00;;;;;;;-4.97;55.17;103200.77;107941;1260;74038;-71
2023/02/08 00:46:59;;;;;;;26.50;13.10;;;;;;;-5.00;55.03;103204.30;107815;1258;73925;-71
2023/02/08 00:49:25;;;;;;;25.70;13.00;;;;;;;-5.03;55.13;103206.57;107809;1254;62032;-71
2023/02/08 00:51:52;;;;;;;24.90;12.40;;;;;;;-5.07;55.09;103202.95;107611;1256;60713;-71
2023/02/08 00:54:20;;;;;;;26.30;13.00;;;;;;;-5.06;55.26;103200.48;107717;1259;75012;-71
2023/02/08 00:56:47;;;;;;;27.50;14.30;;;;;;;-5.10;55.11;103200.05;107910;1260;72601;-72
2023/02/08 00:59:13;;;;;;;31.40;14.80;;;;;;;-5.17;55.18;103208.23;107827;1257;72073;-72
2023/02/08 01:01:43;;;;;;;31.40;14.30;;;;;;;-5.19;55.25;103206.07;107773;1256;61178;-72
2023/02/08 01:04:10;;;;;;;31.70;14.50;;;;;;;-5.14;55.39;103215.55;107808;1254;60945;-71
2023/02/08 01:06:41;;;;;;;27.70;13.80;;;;;;;-5.08;55.22;103220.59;107780;1257;74238;-71
2023/02/08 01:09:11;;;;;;;26.10;12.50;;;;;;;-5.02;55.33;103228.23;107862;1259;73051;-72
2023/02/08 01:11:38;;;;;;;26.90;13.40;;;;;;;-5.00;55.31;103227.56;107883;1259;72274;-71
2023/02/08 01:14:05;;;;;;;25.50;12.50;;;;;;;-4.98;55.39;103224.35;107903;1255;62052;-71
2023/02/08 01:16:32;;;;;;;30.90;13.50;;;;;;;-5.04;55.20;103224.68;107872;1257;60334;-72
2023/02/08 01:19:00;;;;;;;29.30;13.80;;;;;;;-5.09;55.23;103226.54;107953;1258;72958;-71
2023/02/08 01:21:29;;;;;;;27.70;13.40;;;;;;;-5.13;55.29;103230.06;107815;1256;72204;-71
2023/02/08 01:24:00;;;;;;;27.90;13.10;;;;;;;-5.19;55.34;103238.91;107925;1254;72667;-72
2023/02/08 01:26:33;;;;;;;22.80;12.00;;;;;;;-5.24;55.37;103241.30;107869;1257;62880;-71
2023/02/08 01:29:01;;;;;;;25.20;11.70;;;;;;;-5.26;55.46;103241.95;107847;1257;60524;-71
2023/02/08 01:31:33;;;;;;;26.60;12.10;;;;;;;-5.28;55.42;103242.23;107897;1258;75072;-71
2023/02/08 01:34:00;;;;;;;26.20;12.90;;;;;;;-5.31;55.45;103246.89;108765;1258;70698;-72
2023/02/08 01:36:27;;;;;;;24.50;13.10;;;;;;;-5.39;55.51;103248.92;107997;1257;73678;-72
2023/02/08 01:38:54;;;;;;;27.00;12.70;;;;;;;-5.45;55.89;103251.16;107912;1258;60255;-71
2023/02/08 01:41:26;;;;;;;27.90;13.50;;;;;;;-5.48;55.79;103254.96;107970;1258;60351;-72
2023/02/08 01:44:11;;;;;;;27.00;13.50;;;;;;;-5.50;55.91;103262.39;107938;1255;75371;-72
2023/02/08 01:46:41;;;;;;;28.80;13.40;;;;;;;-5.50;55.75;103263.27;108009;1257;72668;-72
2023/02/08 01:49:18;;;;;;;28.30;13.40;;;;;;;-5.49;55.91;103270.13;108304;1259;73521;-72
2023/02/08 01:51:51;;;;;;;30.00;13.00;;;;;;;-5.49;55.74;103279.50;108020;1257;60393;-74
2023/02/08 01:54:20;;;;;;;26.60;13.70;;;;;;;-5.50;55.78;103286.17;108075;1254;60524;-73
2023/02/08 01:56:48;;;;;;;25.10;11.90;;;;;;;-5.52;55.79;103286.80;108136;1257;72194;-74
2023/02/08 01:59:55;;;;;;;26.20;13.20;;;;;;;-5.55;55.95;103289.38;107993;1256;72896;-73
2023/02/08 02:02:24;;;;;;;30.90;13.90;;;;;;;-5.57;55.91;103290.40;107688;1260;74459;-73
2023/02/08 02:04:53;;;;;;;28.00;13.60;;;;;;;-5.59;56.01;103298.98;107600;1260;62207;-73
2023/02/08 02:07:20;;;;;;;28.50;12.90;;;;;;;-5.61;56.14;103297.05;107934;1256;60427;-73
2023/02/08 02:09:50;;;;;;;29.00;13.20;;;;;;;-5.62;56.07;103300.52;108090;1255;72103;-73
2023/02/08 02:12:19;;;;;;;28.00;14.20;;;;;;;-5.63;56.00;103304.96;108126;1258;73727;-72
2023/02/08 02:14:45;;;;;;;27.90;12.90;;;;;;;-5.67;56.21;103308.10;107966;1260;72887;-73
2023/02/08 02:17:12;;;;;;;30.80;14.40;;;;;;;-5.71;56.13;103311.98;107870;1257;61794;-73
2023/02/08 02:20:09;;;;;;;29.00;13.60;;;;;;;-5.76;56.30;103317.30;107895;1257;60297;-71
2023/02/08 02:22:57;;;;;;;24.60;12.50;;;;;;;-5.81;56.38;103320.29;108060;1259;73957;-71
2023/02/08 02:25:44;;;;;;;29.00;13.00;;;;;;;-5.85;56.36;103321.05;108036;1257;71408;-71
2023/02/08 02:28:33;;;;;;;29.60;14.20;;;;;;;-5.91;56.70;103323.23;107787;1254;72941;-71
2023/02/08 02:31:21;;;;;;;29.10;14.30;;;;;;;-5.94;56.44;103320.48;107970;1257;61863;-70
2023/02/08 02:33:52;;;;;;;26.20;12.10;;;;;;;-5.94;56.38;103326.75;107932;1254;60399;-71
2023/02/08 02:36:51;;;;;;;27.60;12.90;;;;;;;-5.94;56.54;103336.30;107960;1260;73451;-71
2023/02/08 02:39:30;;;;;;;31.10;14.10;;;;;;;-5.96;56.45;103340.38;107887;1254;72303;-71
2023/02/08 02:45:14;;;;;;;29.20;13.70;;;;;;;-5.97;56.68;103340.98;108029;1254;61905;-72
2023/02/08 02:47:48;;;;;;;;;;;;;;;-5.98;56.69;103343.27;108012;1257;60417;-72
2023/02/08 02:50:52;;;;;;;28.70;12.70;;;;;;;-5.98;56.56;103342.95;107980;1257;75099;-72
2023/02/08 02:53:28;;;;;;;29.50;13.60;;;;;;;-5.96;56.63;103345.58;107940;1259;72758;-72
2023/02/08 02:56:00;;;;;;;26.40;13.60;;;;;;;-5.94;56.64;103338.38;107945;1254;71892;-72
2023/02/08 02:58:27;;;;;;;28.70;14.00;;;;;;;-5.90;56.74;103340.94;108123;1260;60310;-72
2023/02/08 03:00:55;;;;;;;29.30;13.60;;;;;;;-5.86;56.71;103343.83;108005;1254;60351;-71
2023/02/08 03:03:25;;;;;;;31.40;14.50;;;;;;;-5.81;56.51;103345.98;107970;1260;73655;-71
2023/02/08 03:05:55;;;;;;;28.90;13.70;;;;;;;-5.79;56.54;103347.79;108034;1254;71148;-71
2023/02/08 03:09:02;;;;;;;29.30;14.40;;;;;;;-5.77;56.54;103352.39;107891;1254;73698;-70
2023/02/08 03:11:32;;;;;;;30.30;14.20;;;;;;;-5.77;56.45;103352.70;108021;1254;63182;-72
2023/02/08 03:14:11;;;;;;;29.40;14.10;;;;;;;-5.75;56.52;103354.56;108006;1254;60206;-73
2023/02/08 03:17:07;;;;;;;28.20;13.70;;;;;;;-5.74;56.68;103351.88;107836;1257;74144;-72
2023/02/08 03:20:25;;;;;;;29.40;13.80;;;;;;;-5.71;56.62;103352.91;107877;1260;72381;-72
2023/02/08 03:23:10;;;;;;;27.10;13.60;;;;;;;-5.68;56.60;103353.08;107694;1259;72695;-72
2023/02/08 03:25:50;;;;;;;29.30;14.20;;;;;;;-5.66;56.67;103360.12;107897;1256;61385;-73
2023/02/08 03:28:19;;;;;;;31.90;14.00;;;;;;;-5.69;56.62;103358.89;107774;1257;60559;-71
2023/02/08 03:30:55;;;;;;;29.20;14.40;;;;;;;-5.74;56.74;103357.23;107956;1257;74047;-72
2023/02/08 03:33:34;;;;;;;30.80;14.90;;;;;;;-5.78;56.60;103359.90;107938;1257;71815;-70
2023/02/08 03:36:09;;;;;;;30.00;15.80;;;;;;;-5.84;56.49;103366.45;107991;1254;72850;-71
2023/02/08 03:38:39;;;;;;;31.00;14.90;;;;;;;-5.88;56.64;103368.73;107920;1260;62979;-71
2023/02/08 03:41:09;;;;;;;31.90;17.00;;;;;;;-5.94;56.60;103377.94;107742;1261;61027;-72
2023/02/08 03:43:39;;;;;;;34.50;16.20;;;;;;;-6.01;56.59;103380.56;108043;1258;74294;-72
2023/02/08 03:46:14;;;;;;;32.30;15.50;;;;;;;-6.05;56.76;103384.59;107975;1254;72286;-72
2023/02/08 03:48:48;;;;;;;29.00;15.40;;;;;;;-6.06;56.64;103389.01;107966;1258;71701;-72
2023/02/08 03:51:15;;;;;;;30.90;15.40;;;;;;;-6.09;56.79;103390.67;108064;1258;62392;-71
2023/02/08 03:53:43;;;;;;;29.70;14.90;;;;;;;-6.09;56.64;103392.08;107912;1255;60766;-71
2023/02/08 03:56:19;;;;;;;33.40;16.10;;;;;;;-6.11;56.81;103395.30;107901;1259;74592;-71
2023/02/08 03:58:54;;;;;;;30.00;15.90;;;;;;;-6.14;56.67;103396.33;107978;1259;73150;-71
2023/02/08 04:01:35;;;;;;;32.10;15.00;;;;;;;-6.16;56.76;103406.63;107914;1254;72247;-72
2023/02/08 04:04:02;;;;;;;31.20;14.70;;;;;;;-6.15;57.14;103411.11;107888;1257;60784;-72
2023/02/08 04:06:31;;;;;;;30.20;14.80;;;;;;;-6.15;56.98;103415.60;107722;1255;61526;-71
2023/02/08 04:08:58;;;;;;;31.90;15.00;;;;;;;-6.15;57.02;103415.77;107876;1254;74749;-72
2023/02/08 04:11:27;;;;;;;30.30;14.30;;;;;;;-6.12;57.23;103424.31;108013;1257;72994;-73
2023/02/08 04:13:55;;;;;;;31.60;15.70;;;;;;;-6.14;57.06;103422.13;108045;1254;72705;-72
2023/02/08 04:16:22;;;;;;;32.30;15.50;;;;;;;-6.17;57.06;103418.65;108011;1255;60938;-72
2023/02/08 04:18:49;;;;;;;33.30;15.30;;;;;;;-6.17;57.01;103425.09;108048;1254;60321;-71
2023/02/08 04:21:16;;;;;;;35.60;16.80;;;;;;;-6.17;57.14;103428.20;107900;1257;72310;-72
2023/02/08 04:23:43;;;;;;;32.10;15.70;;;;;;;-6.14;57.14;103428.75;107847;1254;71456;-72
2023/02/08 04:26:10;;;;;;;31.00;15.60;;;;;;;-6.17;56.93;103436.17;107857;1259;70810;-72
2023/02/08 04:28:37;;;;;;;32.70;16.40;;;;;;;-6.28;57.03;103450.24;107835;1254;62193;-72
2023/02/08 04:31:04;;;;;;;35.40;17.10;;;;;;;-6.36;57.07;103454.27;107861;1254;60288;-72
2023/02/08 04:33:31;;;;;;;36.10;17.70;;;;;;;-6.44;57.12;103455.34;107887;1259;74846;-73
2023/02/08 04:35:58;;;;;;;39.20;19.00;;;;;;;-6.51;56.94;103457.06;107899;1257;72023;-73
2023/02/08 04:38:25;;;;;;;38.00;18.20;;;;;;;-6.56;57.20;103458.20;107957;1257;72969;-73
2023/02/08 04:40:52;;;;;;;41.60;18.40;;;;;;;-6.62;57.34;103464.70;107895;1254;62157;-73
2023/02/08 04:43:19;;;;;;;36.70;18.00;;;;;;;-6.67;57.21;103464.77;107914;1254;60336;-74
2023/02/08 04:45:48;;;;;;;33.50;16.90;;;;;;;-6.71;57.57;103470.71;107969;1254;73982;-74
2023/02/08 04:48:16;;;;;;;35.70;17.30;;;;;;;-6.78;57.58;103470.85;107901;1257;73154;-73
2023/02/08 04:50:43;;;;;;;33.50;16.00;;;;;;;-6.84;57.31;103472.52;108096;1254;70561;-73
2023/02/08 04:53:10;;;;;;;36.30;17.80;;;;;;;-6.88;57.66;103478.25;107982;1254;62366;-73
2023/02/08 04:55:37;;;;;;;38.20;16.60;;;;;;;-6.91;57.68;103480.98;107967;1254;60441;-73
2023/02/08 04:58:03;;;;;;;38.40;16.80;;;;;;;-6.94;57.44;103480.05;108013;1254;72914;-73
2023/02/08 05:00:31;;;;;;;38.00;18.20;;;;;;;-6.96;57.77;103482.96;108024;1254;72224;-73
2023/02/08 05:03:00;;;;;;;34.80;16.50;;;;;;;-7.00;57.44;103478.61;107985;1254;73687;-74
2023/02/08 05:05:27;;;;;;;40.10;17.60;;;;;;;-7.04;57.82;103475.52;107947;1254;61149;-73
2023/02/08 05:07:56;;;;;;;39.60;17.10;;;;;;;-7.07;57.92;103477.55;108048;1254;60329;-73
2023/02/08 05:10:23;;;;;;;36.30;17.00;;;;;;;-7.11;57.72;103484.15;107969;1254;72919;-73
2023/02/08 05:12:50;;;;;;;37.70;17.70;;;;;;;-7.15;57.80;103485.02;108048;1254;70936;-71
2023/02/08 05:15:17;;;;;;;40.50;18.60;;;;;;;-7.19;58.00;103489.34;107995;1254;71824;-73
2023/02/08 05:17:44;;;;;;;40.70;18.50;;;;;;;-7.17;57.84;103491.52;108068;1254;61160;-72
2023/02/08 05:20:12;;;;;;;36.40;18.40;;;;;;;-7.17;57.80;103493.06;108000;1256;61071;-73
2023/02/08 05:22:39;;;;;;;39.50;19.80;;;;;;;-7.17;58.00;103500.70;108041;1255;72851;-73
2023/02/08 05:25:06;;;;;;;40.10;19.10;;;;;;;-7.17;58.06;103506.92;108069;1257;73039;-73
2023/02/08 05:27:34;;;;;;;43.90;18.30;;;;;;;-7.14;58.10;103501.61;108077;1254;72662;-73
2023/02/08 05:30:02;;;;;;;39.40;18.70;;;;;;;-7.12;57.88;103503.73;107937;1258;62842;-73
2023/02/08 05:32:29;;;;;;;36.50;18.20;;;;;;;-7.14;57.77;103501.95;107973;1255;59854;-73
2023/02/08 05:34:56;;;;;;;39.10;18.70;;;;;;;-7.18;58.05;103505.92;107896;1257;74056;-73
2023/02/08 05:37:24;;;;;;;39.10;17.90;;;;;;;-7.21;57.96;103506.77;107969;1256;73130;-73
2023/02/08 05:39:51;;;;;;;42.80;19.20;;;;;;;-7.23;58.12;103513.40;108040;1256;72209;-73
2023/02/08 05:42:17;;;;;;;41.60;19.00;;;;;;;-7.22;58.03;103517.36;108015;1256;61888;-73
2023/02/08 05:44:44;;;;;;;42.90;19.20;;;;;;;-7.19;57.85;103520.86;107978;1254;60338;-73
2023/02/08 05:47:12;;;;;;;37.50;18.60;;;;;;;-7.16;58.01;103525.75;107968;1257;72663;-73
2023/02/08 05:49:39;;;;;;;45.20;20.40;;;;;;;-7.11;58.17;103524.99;108042;1254;73147;-72
2023/02/08 05:52:06;;;;;;;41.90;19.40;;;;;;;-7.05;58.11;103530.83;107944;1257;72912;-73
2023/02/08 05:54:34;;;;;;;43.80;20.00;;;;;;;-7.01;58.03;103533.58;107893;1257;61035;-73
2023/02/08 05:57:00;;;;;;;44.90;21.10;;;;;;;-6.97;58.08;103540.67;108007;1256;60604;-72
2023/02/08 05:59:28;;;;;;;47.60;21.60;;;;;;;-6.92;58.20;103545.47;107974;1257;72872;-72
2023/02/08 06:01:55;;;;;;;50.30;22.00;;;;;;;-6.89;58.08;103551.05;107975;1255;71804;-72
2023/02/08 06:04:21;;;;;;;44.80;21.40;;;;;;;-6.89;57.99;103550.85;107916;1254;73684;-72
2023/02/08 06:06:48;;;;;;;48.20;23.00;;;;;;;-6.87;58.05;103551.29;107991;1256;62320;-72
2023/02/08 06:09:15;;;;;;;52.20;23.60;;;;;;;-6.82;57.90;103554.56;108027;1256;59286;-73
2023/02/08 06:11:43;;;;;;;49.00;23.30;;;;;;;-6.79;57.96;103553.38;107847;1257;73335;-73
2023/02/08 06:14:12;;;;;;;52.10;23.30;;;;;;;-6.75;57.79;103549.55;107786;1254;131366;-73
2023/02/08 06:16:39;;;;;;;43.70;20.70;;;;;;;-6.71;57.68;103547.29;108253;1256;72034;-72
2023/02/08 06:19:06;;;;;;;55.60;23.40;;;;;;;-6.62;57.81;103546.52;107946;1259;60089;-74
2023/02/08 06:21:33;;;;;;;45.00;20.80;;;;;;;-6.51;57.64;103544.29;108010;1257;60394;-72
2023/02/08 06:24:02;;;;;;;42.50;20.30;;;;;;;-6.42;57.65;103549.58;107998;1254;73132;-72
2023/02/08 06:26:29;;;;;;;42.40;21.60;;;;;;;-6.33;57.59;103549.83;108014;1257;73397;-73
2023/02/08 06:28:58;;;;;;;47.20;21.80;;;;;;;-6.24;57.52;103557.25;107925;1258;73087;-73
2023/02/08 06:31:24;;;;;;;49.30;21.40;;;;;;;-6.16;57.49;103560.84;107984;1257;60567;-72
2023/02/08 06:33:52;;;;;;;49.90;22.50;;;;;;;-6.11;57.32;103562.16;107985;1259;60527;-72
2023/02/08 06:36:18;;;;;;;44.10;21.20;;;;;;;-6.08;57.19;103561.83;107829;1257;74667;-72
2023/02/08 06:38:46;;;;;;;42.20;20.30;;;;;;;-6.02;57.21;103565.02;107882;1254;71761;-73
2023/02/08 06:41:12;;;;;;;42.80;20.90;;;;;;;-5.94;56.98;103567.56;107904;1258;70457;-72
2023/02/08 06:43:39;;;;;;;44.50;21.80;;;;;;;-5.86;56.92;103569.79;107815;1257;61051;-72
2023/02/08 06:46:07;;;;;;;44.00;21.20;;;;;;;-5.82;56.78;103567.83;107912;1255;61715;-72
2023/02/08 06:48:34;;;;;;;41.80;20.10;;;;;;;-5.79;56.74;103568.00;107742;1256;74208;-72
2023/02/08 06:51:01;;;;;;;42.90;20.70;;;;;;;-5.74;56.77;103566.20;107953;1256;70719;-72
2023/02/08 06:53:28;;;;;;;45.60;21.30;;;;;;;-5.67;56.73;103573.48;107927;1257;73748;-72
2023/02/08 06:55:55;;;;;;;37.00;20.10;;;;;;;-5.63;56.45;103576.76;107861;1254;61009;-72
2023/02/08 06:58:22;;;;;;;42.50;20.40;;;;;;;-5.58;56.35;103580.70;107842;1255;58994;-73
2023/02/08 07:00:49;;;;;;;40.80;20.10;;;;;;;-5.52;56.34;103582.48;107994;1257;72960;-73
2023/02/08 07:03:16;;;;;;;37.60;18.40;;;;;;;-5.41;56.25;103580.36;107871;1257;73399;-72
2023/02/08 07:05:43;;;;;;;42.00;20.90;;;;;;;-5.32;56.31;103579.23;107860;1256;72244;-72
2023/02/08 07:08:32;;;;;;;37.70;19.30;;;;;;;-5.25;56.16;103579.02;107955;1254;62278;-71
2023/02/08 07:11:14;;;;;;;37.40;19.80;;;;;;;-5.15;56.07;103574.52;108026;1254;60274;-72
2023/02/08 07:13:46;;;;;;;42.90;20.80;;;;;;;-5.06;55.96;103578.18;107955;1255;72909;-72
2023/02/08 07:16:13;;;;;;;43.80;21.00;;;;;;;-4.96;55.89;103574.57;107903;1257;72810;-71
2023/02/08 07:18:41;;;;;;;34.90;18.50;;;;;;;-4.88;55.87;103578.30;107929;1254;73313;-71
2023/02/08 07:21:09;;;;;;;38.50;19.70;;;;;;;-4.79;55.65;103583.23;107964;1254;60380;-71
2023/02/08 07:23:38;;;;;;;42.00;19.90;;;;;;;-4.74;55.43;103578.07;108002;1256;61313;-71
2023/02/08 07:26:07;;;;;;;38.80;19.40;;;;;;;-4.65;55.47;103579.50;107773;1254;72294;-71
2023/02/08 07:28:36;;;;;;;39.90;20.10;;;;;;;-4.52;55.34;103577.08;107661;1255;73091;-72
2023/02/08 07:31:07;;;;;;;38.70;19.60;;;;;;;-4.39;55.14;103572.89;107944;1254;73532;-72
2023/02/08 07:33:34;;;;;;;42.00;19.50;;;;;;;-4.26;54.96;103574.08;107886;1254;60392;-71
2023/02/08 07:36:04;;;;;;;38.50;19.10;;;;;;;-4.15;54.82;103579.39;108010;1255;60738;-71
2023/02/08 07:38:32;;;;;;;38.30;19.60;;;;;;;-4.04;54.64;103576.13;107973;1256;74086;-71
2023/02/08 07:41:04;;;;;;;36.20;19.60;;;;;;;-3.87;54.51;103581.80;107939;1258;71612;-71
2023/02/08 07:43:32;;;;;;;;;;;;;;;-3.79;54.14;103574.90;108012;1257;72450;-71
2023/02/08 07:46:17;;;;;;;39.70;18.90;;;;;;;-3.69;53.92;103574.70;107939;1254;60238;-70
2023/02/08 07:48:44;;;;;;;34.60;18.40;;;;;;;-3.52;53.98;103575.58;107909;1254;60347;-71
2023/02/08 07:51:11;;;;;;;37.70;17.90;;;;;;;-3.39;53.72;103575.34;107975;1257;73055;-72
2023/02/08 07:53:39;;;;;;;40.00;19.80;;;;;;;-3.34;53.41;103573.10;107955;1257;72903;-70
2023/02/08 07:56:06;;;;;;;39.80;19.70;;;;;;;-3.29;53.19;103574.93;108042;1256;71764;-70
2023/02/08 07:58:36;;;;;;;35.30;18.30;;;;;;;-3.19;53.19;103570.82;107988;1254;61157;-70
2023/02/08 08:01:03;;;;;;;36.70;18.80;;;;;;;-3.12;52.80;103571.45;107946;1254;61824;-70
2023/02/08 08:03:49;;;;;;;35.60;19.80;;;;;;;-3.13;52.50;103577.40;108034;1254;73449;-70
2023/02/08 08:06:17;;;;;;;39.70;19.90;;;;;;;-3.12;52.51;103576.31;108005;1257;72880;-70
2023/02/08 08:08:46;;;;;;;36.50;20.50;;;;;;;-3.02;52.58;103575.56;108042;1254;71935;-70
2023/02/08 08:11:14;;;;;;;38.50;20.60;;;;;;;-2.89;52.37;103578.41;107945;1254;60649;-70
2023/02/08 08:13:42;;;;;;;38.10;20.70;;;;;;;-2.80;52.15;103575.96;108038;1254;60292;-71
2023/02/08 08:16:09;;;;;;;40.60;21.10;;;;;;;-2.78;51.96;103579.17;107950;1255;72962;-71
2023/02/08 08:18:36;;;;;;;40.50;20.90;;;;;;;-2.74;51.95;103583.59;107983;1254;72794;-71
2023/02/08 08:21:03;;;;;;;38.10;19.90;;;;;;;-2.63;51.94;103584.46;107944;1255;73828;-71
2023/02/08 08:23:32;;;;;;;35.80;19.60;;;;;;;-2.47;51.73;103586.31;107961;1255;61847;-71
2023/02/08 08:25:59;;;;;;;38.90;20.50;;;;;;;-2.39;51.45;103585.05;108010;1258;61379;-71
2023/02/08 08:28:26;;;;;;;37.90;20.20;;;;;;;-2.44;51.22;103585.07;107988;1254;74399;-71
2023/02/08 08:30:53;;;;;;;37.20;20.20;;;;;;;-2.40;51.32;103586.55;108040;1254;71928;-71
2023/02/08 08:33:20;;;;;;;37.60;18.90;;;;;;;-2.26;51.28;103590.90;107987;1254;71686;-71
2023/02/08 08:35:47;;;;;;;38.10;19.50;;;;;;;-2.14;51.10;103590.64;107930;1258;60550;-71
2023/02/08 08:38:14;;;;;;;41.30;20.90;;;;;;;-2.04;50.95;103594.58;107992;1256;60358;-71
2023/02/08 08:40:42;;;;;;;41.80;21.00;;;;;;;-1.96;50.98;103590.73;107997;1255;73198;-70
2023/02/08 08:43:09;;;;;;;34.80;19.10;;;;;;;-1.85;50.65;103591.76;108035;1257;71528;-70
2023/02/08 08:45:37;;;;;;;38.10;18.80;;;;;;;-1.75;50.45;103587.05;108017;1256;72893;-71
2023/02/08 08:48:04;;;;;;;38.40;20.00;;;;;;;-1.65;50.14;103588.47;107980;1255;62639;-71
2023/02/08 08:50:32;;;;;;;36.30;20.90;;;;;;;-1.56;49.97;103587.90;107977;1259;60533;-71
2023/02/08 08:53:00;;;;;;;36.50;20.20;;;;;;;-1.45;50.00;103588.17;108015;1259;73773;-71
2023/02/08 08:55:27;;;;;;;37.70;19.80;;;;;;;-1.29;49.74;103588.88;108042;1255;71018;-70
2023/02/08 08:57:54;;;;;;;37.90;19.90;;;;;;;-1.14;49.47;103589.95;108054;1255;71621;-70
2023/02/08 09:00:21;;;;;;;38.60;20.00;;;;;;;-1.05;49.05;103583.77;108088;1257;60437;-71
2023/02/08 09:02:48;;;;;;;35.50;19.50;;;;;;;-0.99;49.08;103582.98;108066;1254;60316;-71
2023/02/08 09:05:15;;;;;;;36.80;20.20;;;;;;;-0.87;49.12;103585.98;108042;1255;73573;-71
2023/02/08 09:07:42;;;;;;;35.80;20.10;;;;;;;-0.74;48.42;103586.98;108005;1255;72602;-72
2023/02/08 09:10:14;;;;;;;33.50;18.00;;;;;;;-0.66;48.37;103586.30;107913;1254;72856;-71
2023/02/08 09:12:42;;;;;;;36.10;19.50;;;;;;;-0.58;48.15;103581.34;107992;1256;60369;-71
2023/02/08 09:15:10;;;;;;;36.30;19.60;;;;;;;-0.47;47.96;103583.02;108044;1256;60332;-70
2023/02/08 09:17:38;;;;;;;35.60;19.40;;;;;;;-0.37;47.93;103578.25;108113;1256;74063;-71
2023/02/08 09:20:06;;;;;;;36.10;19.50;;;;;;;-0.27;47.53;103578.39;108050;1256;73727;-72
2023/02/08 09:22:33;;;;;;;37.40;20.90;;;;;;;-0.16;47.27;103574.98;108050;1257;72706;-73
2023/02/08 09:25:00;;;;;;;34.30;19.70;;;;;;;-0.05;47.21;103572.08;108005;1259;61401;-72
2023/02/08 09:27:28;;;;;;;35.30;20.10;;;;;;;0.09;47.29;103568.24;108027;1255;60261;-71
2023/02/08 09:29:55;;;;;;;31.90;18.00;;;;;;;0.22;46.82;103560.40;108003;1256;74576;-71
2023/02/08 09:32:22;;;;;;;29.10;15.10;;;;;;;0.29;46.39;103560.25;107928;1254;73733;-73
2023/02/08 09:34:50;;;;;;;16.50;9.60;;;;;;;0.28;45.81;103559.13;107968;1254;71969;-73
2023/02/08 09:37:18;;;;;;;15.10;8.60;;;;;;;0.28;45.37;103556.33;107905;1254;61192;-72
2023/02/08 09:39:45;;;;;;;15.50;8.90;;;;;;;0.29;45.32;103554.81;108046;1254;60742;-72
2023/02/08 09:42:18;;;;;;;17.40;9.00;;;;;;;0.30;45.16;103555.13;108063;1254;72144;-72
2023/02/08 09:45:21;;;;;;;19.80;10.30;;;;;;;0.30;44.86;103548.98;108006;1254;71753;-72
2023/02/08 09:47:59;;;;;;;16.90;10.10;;;;;;;0.34;44.62;103542.16;108007;1254;72865;-72
2023/02/08 09:50:41;;;;;;;18.60;10.10;;;;;;;0.37;44.55;103542.27;107987;1254;60374;-72
2023/02/08 09:53:17;;;;;;;17.90;10.40;;;;;;;0.43;44.67;103538.13;108084;1254;60326;-73
2023/02/08 09:55:45;;;;;;;18.80;9.90;;;;;;;0.51;44.77;103536.31;108021;1254;73089;-73
2023/02/08 09:58:17;;;;;;;18.20;10.40;;;;;;;0.60;44.22;103536.85;108021;1258;73502;-71
2023/02/08 10:00:46;;;;;;;16.50;10.00;;;;;;;0.66;44.06;103535.13;107965;1255;73103;-71
2023/02/08 10:03:41;;;;;;;19.40;10.80;;;;;;;0.74;43.48;103524.98;107905;1256;60335;-72
2023/02/08 10:06:10;;;;;;;17.90;10.60;;;;;;;0.76;43.60;103517.75;107867;1256;60522;-72
2023/02/08 10:08:37;;;;;;;18.60;11.10;;;;;;;0.79;43.51;103519.27;107931;1255;73051;-72
2023/02/08 10:11:37;;;;;;;19.40;10.60;;;;;;;0.81;43.46;103519.59;107844;1254;70747;-72
2023/02/08 10:14:07;;;;;;;17.60;10.20;;;;;;;0.89;43.23;103514.59;107733;1254;73276;-71
2023/02/08 10:16:46;;;;;;;18.00;11.10;;;;;;;0.91;43.15;103512.30;107997;1257;60841;-71
2023/02/08 10:19:45;;;;;;;18.00;10.50;;;;;;;0.93;43.19;103508.52;108006;1255;60451;-71
2023/02/08 10:22:31;;;;;;;19.80;10.20;;;;;;;0.91;43.18;103508.84;108098;1256;72771;-70
2023/02/08 10:25:21;;;;;;;19.20;11.30;;;;;;;0.93;43.05;103507.98;107976;1254;72143;-70
2023/02/08 10:28:09;;;;;;;21.40;12.60;;;;;;;0.98;42.97;103507.44;108001;1255;70911;-71
2023/02/08 10:30:41;;;;;;;18.10;9.60;;;;;;;1.06;42.82;103511.35;108033;1254;62185;-72
2023/02/08 10:33:31;;;;;;;20.40;11.40;;;;;;;1.09;42.58;103506.35;108001;1259;60763;-71
2023/02/08 10:35:58;;;;;;;19.90;11.30;;;;;;;1.16;42.68;103502.67;108005;1257;73052;-71
2023/02/08 10:38:31;;;;;;;21.80;11.40;;;;;;;1.28;42.69;103503.63;108034;1257;72594;-71
2023/02/08 10:41:28;;;;;;;20.60;11.60;;;;;;;1.35;42.31;103508.16;107781;1257;72128;-70
2023/02/08 10:44:17;;;;;;;19.70;11.30;;;;;;;1.39;42.34;103511.70;108061;1254;61496;-71
2023/02/08 10:46:51;;;;;;;21.00;11.00;;;;;;;1.42;42.54;103512.50;108008;1254;61258;-71
2023/02/08 10:49:28;;;;;;;19.10;11.20;;;;;;;1.47;42.53;103512.66;108006;1254;71728;-71
2023/02/08 10:51:55;;;;;;;17.80;10.00;;;;;;;1.51;42.50;103514.29;107989;1257;71984;-71
2023/02/08 10:54:22;;;;;;;18.20;10.50;;;;;;;1.58;42.59;103514.21;107987;1256;73607;-71
2023/02/08 10:56:57;;;;;;;19.90;11.40;;;;;;;1.63;42.54;103509.92;107967;1254;62279;-71
2023/02/08 10:59:34;;;;;;;18.40;10.70;;;;;;;1.67;42.45;103516.50;107946;1256;60541;-71
2023/02/08 11:02:01;;;;;;;16.70;10.10;;;;;;;1.71;42.11;103513.84;108047;1255;71713;-71
2023/02/08 11:04:28;;;;;;;15.80;8.90;;;;;;;1.76;42.23;103509.55;108103;1254;72866;-69
2023/02/08 11:06:57;;;;;;;19.80;9.40;;;;;;;1.81;42.38;103510.02;108032;1256;71406;-71
2023/02/08 11:09:28;;;;;;;19.20;10.80;;;;;;;1.89;42.13;103512.69;108026;1257;62349;-71
2023/02/08 11:11:56;;;;;;;16.60;10.30;;;;;;;1.93;42.12;103512.39;108075;1255;60363;-71
2023/02/08 11:14:33;;;;;;;17.10;10.00;;;;;;;1.95;42.16;103510.80;108058;1255;71987;-70
2023/02/08 11:17:25;;;;;;;18.50;10.50;;;;;;;1.96;41.58;103510.54;107981;1254;73594;-70
2023/02/08 11:19:52;;;;;;;22.10;10.50;;;;;;;1.92;41.95;103503.48;107981;1254;73935;-71
2023/02/08 11:22:21;;;;;;;17.50;9.70;;;;;;;1.95;41.70;103508.05;108030;1254;62311;-70
2023/02/08 11:25:04;;;;;;;17.10;9.90;;;;;;;1.97;41.46;103506.30;107972;1254;61149;-70